Time;durP1;ratioP1;P1;durP2;ratioP2;P2;SDS_P1;SDS_P2;PMS_P1;PMS_P2;Temp;Humidity;BMP_temperature;BMP_pressure;BME280_temperature;BME280_humidity;BME280_pressure;Samples;Min_cycle;Max_cycle;Signal;HPM_P1;HPM_P2
2022/07/08 00:00:38;;;;;;;3.72;1.80;;;15.20;99.90;;;;;;4910700;29;20059;-75
2022/07/08 00:03:04;;;;;;;4.55;1.70;;;15.20;99.90;;;;;;4919862;29;20043;-74
2022/07/08 00:05:30;;;;;;;4.53;1.88;;;15.20;99.90;;;;;;4920214;29;20051;-74
2022/07/08 00:07:56;;;;;;;7.05;1.77;;;15.20;99.90;;;;;;4911259;29;20044;-74
2022/07/08 00:10:22;;;;;;;3.42;1.95;;;15.20;99.90;;;;;;4927253;29;20039;-74
2022/07/08 00:12:48;;;;;;;9.32;2.13;;;15.20;99.90;;;;;;4919823;28;20079;-73
2022/07/08 00:15:14;;;;;;;3.63;2.13;;;15.10;99.90;;;;;;4905285;29;20051;-74
2022/07/08 00:17:39;;;;;;;4.25;1.42;;;15.20;99.90;;;;;;4915971;29;20065;-74
2022/07/08 00:20:06;;;;;;;5.32;2.47;;;15.10;99.90;;;;;;4910603;29;20048;-74
2022/07/08 00:22:33;;;;;;;3.88;1.95;;;15.10;99.90;;;;;;4914174;29;20554;-73
2022/07/08 00:24:59;;;;;;;4.35;2.30;;;15.10;99.90;;;;;;4924812;29;20075;-73
2022/07/08 00:27:25;;;;;;;3.17;1.58;;;15.10;99.90;;;;;;4911458;29;20357;-73
2022/07/08 00:29:50;;;;;;;4.15;1.95;;;15.10;99.90;;;;;;4916225;29;20531;-73
2022/07/08 00:32:16;;;;;;;4.90;2.00;;;15.00;99.90;;;;;;4912623;29;20131;-73
2022/07/08 00:34:42;;;;;;;2.88;1.67;;;15.10;99.90;;;;;;4919377;29;20079;-73
2022/07/08 00:37:08;;;;;;;4.40;1.85;;;15.00;99.90;;;;;;4919267;29;20048;-73
2022/07/08 00:39:34;;;;;;;3.20;1.80;;;15.00;99.90;;;;;;4919323;29;20135;-73
2022/07/08 00:42:00;;;;;;;5.78;1.60;;;15.00;99.90;;;;;;4916113;29;20052;-74
2022/07/08 00:44:25;;;;;;;3.92;1.70;;;15.00;99.90;;;;;;4919531;28;20100;-73
2022/07/08 00:46:51;;;;;;;4.72;1.88;;;15.10;99.90;;;;;;4910051;28;20952;-73
2022/07/08 00:49:17;;;;;;;2.95;1.42;;;15.00;99.90;;;;;;4914781;29;20051;-73
2022/07/08 00:51:43;;;;;;;6.97;2.13;;;15.00;99.90;;;;;;4920169;29;20056;-73
2022/07/08 00:54:13;;;;;;;2.50;1.90;;;15.00;99.90;;;;;;4920933;29;20142;-73
2022/07/08 00:56:39;;;;;;;2.03;1.40;;;15.00;99.90;;;;;;4919830;29;20174;-74
2022/07/08 00:59:05;;;;;;;3.15;1.92;;;14.90;99.90;;;;;;4914224;29;20095;-74
2022/07/08 01:01:31;;;;;;;5.05;1.50;;;14.90;99.90;;;;;;4917860;29;20051;-74
2022/07/08 01:03:57;;;;;;;1.85;1.40;;;14.90;99.90;;;;;;4920098;29;20065;-74
2022/07/08 01:06:22;;;;;;;5.22;2.10;;;14.80;99.90;;;;;;4920379;29;20054;-74
2022/07/08 01:08:48;;;;;;;5.95;1.83;;;14.80;99.90;;;;;;4910207;29;20106;-73
2022/07/08 01:11:14;;;;;;;5.30;1.45;;;14.80;99.90;;;;;;4914646;29;20047;-74
2022/07/08 01:13:40;;;;;;;4.50;2.47;;;14.70;99.90;;;;;;4921885;29;20055;-74
2022/07/08 01:16:06;;;;;;;3.92;1.92;;;14.80;99.90;;;;;;4917676;29;20497;-73
2022/07/08 01:18:32;;;;;;;3.42;1.77;;;14.60;99.90;;;;;;4919227;29;20055;-74
2022/07/08 01:20:58;;;;;;;3.33;1.83;;;14.60;99.90;;;;;;4916931;29;20048;-74
2022/07/08 01:23:25;;;;;;;5.78;1.90;;;14.60;99.90;;;;;;4914516;29;20086;-74
2022/07/08 01:25:51;;;;;;;5.22;1.90;;;14.60;99.90;;;;;;4904719;29;20127;-74
2022/07/08 01:28:17;;;;;;;4.00;1.70;;;14.60;99.90;;;;;;4915297;29;20122;-73
2022/07/08 01:30:43;;;;;;;3.80;1.50;;;14.50;99.90;;;;;;4902927;29;20492;-73
2022/07/08 01:33:09;;;;;;;6.63;1.75;;;14.50;99.90;;;;;;4914073;29;20060;-73
2022/07/08 01:35:35;;;;;;;2.60;1.55;;;14.40;99.90;;;;;;4919102;29;20139;-74
2022/07/08 01:38:01;;;;;;;7.15;1.58;;;14.40;99.90;;;;;;4912660;29;20690;-73
2022/07/08 01:40:27;;;;;;;9.02;1.92;;;14.40;99.90;;;;;;4910250;29;20534;-73
2022/07/08 01:42:52;;;;;;;3.38;1.52;;;14.30;99.90;;;;;;4907849;29;20220;-73
2022/07/08 01:45:18;;;;;;;5.05;1.60;;;14.20;99.90;;;;;;4917666;29;20158;-73
2022/07/08 01:47:44;;;;;;;7.60;1.90;;;14.20;99.90;;;;;;4916940;29;20078;-74
2022/07/08 01:50:09;;;;;;;1.67;1.55;;;14.20;99.90;;;;;;4913446;29;20047;-73
2022/07/08 01:52:36;;;;;;;5.82;2.35;;;14.20;99.90;;;;;;4917808;29;20075;-74
2022/07/08 01:55:02;;;;;;;7.38;1.80;;;14.20;99.90;;;;;;4908697;29;20048;-73
2022/07/08 01:57:28;;;;;;;3.03;1.75;;;14.10;99.90;;;;;;4919762;29;20047;-73
2022/07/08 01:59:54;;;;;;;5.70;1.77;;;14.20;99.90;;;;;;4925068;28;20058;-73
2022/07/08 02:02:21;;;;;;;4.63;1.80;;;14.20;99.90;;;;;;4921376;29;20044;-74
2022/07/08 02:04:47;;;;;;;2.47;1.95;;;14.20;99.90;;;;;;4927500;28;20051;-74
2022/07/08 02:07:14;;;;;;;4.72;1.80;;;14.20;99.90;;;;;;4915317;29;20104;-74
2022/07/08 02:09:41;;;;;;;3.13;1.60;;;14.10;99.90;;;;;;4914763;29;20446;-74
2022/07/08 02:12:20;;;;;;;5.10;2.22;;;14.10;99.90;;;;;;4916477;29;20059;-73
2022/07/08 02:14:48;;;;;;;2.88;1.52;;;14.00;99.90;;;;;;4918856;29;20047;-73
2022/07/08 02:17:15;;;;;;;3.15;1.70;;;14.00;99.90;;;;;;4920644;29;20122;-74
2022/07/08 02:19:41;;;;;;;3.95;2.00;;;13.90;99.90;;;;;;4923178;29;20132;-73
2022/07/08 02:22:08;;;;;;;4.75;2.17;;;13.90;99.90;;;;;;4918926;29;20047;-74
2022/07/08 02:24:34;;;;;;;2.80;1.60;;;13.90;99.90;;;;;;4920876;29;20090;-74
2022/07/08 02:27:00;;;;;;;4.13;2.40;;;13.90;99.90;;;;;;4917030;29;20458;-74
2022/07/08 02:29:26;;;;;;;5.72;2.00;;;13.80;99.90;;;;;;4919097;29;20721;-75
2022/07/08 02:31:52;;;;;;;6.30;2.20;;;13.80;99.90;;;;;;4922540;29;20082;-74
2022/07/08 02:34:18;;;;;;;7.57;2.20;;;13.80;99.90;;;;;;4921485;29;20071;-74
2022/07/08 02:36:43;;;;;;;3.88;1.50;;;13.70;99.90;;;;;;4923610;29;20106;-74
2022/07/08 02:39:09;;;;;;;8.90;2.03;;;13.70;99.90;;;;;;4922590;29;20945;-73
2022/07/08 02:41:38;;;;;;;10.35;2.42;;;13.70;99.90;;;;;;4925618;29;20567;-73
2022/07/08 02:44:04;;;;;;;4.88;1.85;;;13.60;99.90;;;;;;4924542;28;20591;-74
2022/07/08 02:46:30;;;;;;;3.17;2.10;;;13.50;99.90;;;;;;4921428;29;20583;-73
2022/07/08 02:48:56;;;;;;;4.47;2.00;;;13.50;99.90;;;;;;4929127;29;20043;-73
2022/07/08 02:51:22;;;;;;;7.00;2.58;;;13.50;99.90;;;;;;4917554;28;20055;-74
2022/07/08 02:53:48;;;;;;;4.75;1.73;;;13.50;99.90;;;;;;4923228;29;20060;-74
2022/07/08 02:56:14;;;;;;;4.70;2.15;;;13.30;99.90;;;;;;4916410;29;20136;-73
2022/07/08 02:58:39;;;;;;;3.00;1.35;;;13.40;99.90;;;;;;4928581;29;20176;-74
2022/07/08 03:01:05;;;;;;;5.72;2.03;;;13.40;99.90;;;;;;4921042;29;20063;-74
2022/07/08 03:03:31;;;;;;;5.50;1.90;;;13.40;99.90;;;;;;4919377;29;20056;-74
2022/07/08 03:05:56;;;;;;;2.15;1.83;;;13.40;99.90;;;;;;4916385;29;20043;-74
2022/07/08 03:08:22;;;;;;;7.82;1.95;;;13.40;99.90;;;;;;4912010;29;20118;-74
2022/07/08 03:10:49;;;;;;;6.60;1.77;;;13.40;99.90;;;;;;4909313;29;20058;-74
2022/07/08 03:13:15;;;;;;;6.15;3.05;;;13.30;99.90;;;;;;4923286;28;20055;-74
2022/07/08 03:15:41;;;;;;;6.60;1.90;;;13.30;99.90;;;;;;4914464;29;20056;-74
2022/07/08 03:18:06;;;;;;;7.05;2.17;;;13.30;99.90;;;;;;4911995;29;20110;-74
2022/07/08 03:20:33;;;;;;;4.30;2.08;;;13.30;99.90;;;;;;4905660;29;20808;-74
2022/07/08 03:22:58;;;;;;;6.78;1.80;;;13.20;99.90;;;;;;4908275;29;20051;-74
2022/07/08 03:25:24;;;;;;;3.33;1.73;;;13.30;99.90;;;;;;4921941;29;20044;-74
2022/07/08 03:27:49;;;;;;;4.80;1.58;;;13.30;99.90;;;;;;4911345;29;20650;-74
2022/07/08 03:30:15;;;;;;;4.15;1.73;;;13.30;99.90;;;;;;4919037;29;20086;-74
2022/07/08 03:32:41;;;;;;;6.25;1.85;;;13.20;99.90;;;;;;4920161;29;20162;-74
2022/07/08 03:35:07;;;;;;;3.80;1.80;;;13.30;99.90;;;;;;4915658;28;20411;-74
2022/07/08 03:37:33;;;;;;;5.70;2.88;;;13.30;99.90;;;;;;4918049;29;20178;-75
2022/07/08 03:41:19;;;;;;;5.93;2.35;;;13.30;99.90;;;;;;4923434;29;20098;-75
2022/07/08 03:42:47;;;;;;;12.20;2.20;;;13.20;99.90;;;;;;4913654;29;20051;-74
2022/07/08 03:45:13;;;;;;;4.18;2.63;;;13.20;99.90;;;;;;4919585;29;20751;-75
2022/07/08 03:47:39;;;;;;;4.05;2.03;;;13.20;99.90;;;;;;4915399;29;20044;-74
2022/07/08 03:50:05;;;;;;;3.55;2.08;;;13.20;99.90;;;;;;4922220;28;20078;-74
2022/07/08 03:52:30;;;;;;;3.88;1.95;;;13.10;99.90;;;;;;4914655;29;20397;-74
2022/07/08 03:54:56;;;;;;;4.63;3.05;;;13.10;99.90;;;;;;4924185;29;20055;-74
2022/07/08 03:57:22;;;;;;;6.57;2.00;;;13.10;99.90;;;;;;4929920;29;20079;-74
2022/07/08 03:59:47;;;;;;;5.80;2.78;;;13.10;99.90;;;;;;4914183;28;20082;-74
2022/07/08 04:02:13;;;;;;;3.13;2.05;;;13.10;99.90;;;;;;4909509;29;20094;-74
2022/07/08 04:04:39;;;;;;;2.58;1.38;;;13.10;99.90;;;;;;4913747;29;20048;-74
2022/07/08 04:07:04;;;;;;;7.88;2.00;;;13.20;99.90;;;;;;4916514;29;20048;-75
2022/07/08 04:09:30;;;;;;;3.65;2.00;;;13.20;99.90;;;;;;4918746;29;20054;-74
2022/07/08 04:11:56;;;;;;;3.13;1.80;;;13.20;99.90;;;;;;4914314;29;20048;-74
2022/07/08 04:14:22;;;;;;;4.55;2.13;;;13.20;99.90;;;;;;4925944;29;20508;-74
2022/07/08 04:16:47;;;;;;;5.53;2.30;;;13.20;99.90;;;;;;4919542;29;20052;-74
2022/07/08 04:19:13;;;;;;;4.60;2.03;;;13.20;99.90;;;;;;4916919;29;20106;-74
2022/07/08 04:21:40;;;;;;;7.35;2.33;;;13.20;99.90;;;;;;4917674;28;20090;-74
2022/07/08 04:24:06;;;;;;;4.22;2.05;;;13.20;99.90;;;;;;4925832;29;20122;-74
2022/07/08 04:26:31;;;;;;;3.55;1.67;;;13.30;99.90;;;;;;4913546;28;20043;-74
2022/07/08 04:28:58;;;;;;;5.68;2.53;;;13.30;99.90;;;;;;4922906;29;20079;-74
2022/07/08 04:31:25;;;;;;;5.53;2.00;;;13.30;99.90;;;;;;4927042;29;20147;-74
2022/07/08 04:33:50;;;;;;;6.45;2.40;;;13.30;99.90;;;;;;4922140;29;20067;-74
2022/07/08 04:36:16;;;;;;;3.63;1.80;;;13.40;99.90;;;;;;4917672;29;20835;-74
2022/07/08 04:38:42;;;;;;;9.90;2.50;;;13.40;99.90;;;;;;4917342;29;20543;-74
2022/07/08 04:41:07;;;;;;;2.75;2.03;;;13.40;99.90;;;;;;4916011;29;20802;-74
2022/07/08 04:43:33;;;;;;;7.00;3.45;;;13.40;99.90;;;;;;4906091;29;20059;-74
2022/07/08 04:45:59;;;;;;;8.55;2.05;;;13.50;99.90;;;;;;4932877;28;20040;-74
2022/07/08 04:48:24;;;;;;;4.72;2.40;;;13.60;99.90;;;;;;4914012;29;20051;-74
2022/07/08 04:50:50;;;;;;;3.85;2.05;;;13.60;99.90;;;;;;4911555;29;20047;-74
2022/07/08 04:53:16;;;;;;;5.20;2.28;;;13.60;99.90;;;;;;4917027;29;20507;-74
2022/07/08 04:55:41;;;;;;;5.95;1.95;;;13.70;99.90;;;;;;4916696;29;20051;-74
2022/07/08 04:58:07;;;;;;;7.15;2.47;;;13.80;99.90;;;;;;4921013;29;20051;-73
2022/07/08 05:00:33;;;;;;;4.65;2.40;;;14.00;99.90;;;;;;4930577;29;20086;-74
2022/07/08 05:03:00;;;;;;;4.28;2.90;;;14.10;99.90;;;;;;4914948;28;20048;-74
2022/07/08 05:05:27;;;;;;;4.70;2.13;;;14.30;99.90;;;;;;4919661;29;20508;-74
2022/07/08 05:07:54;;;;;;;3.83;2.55;;;14.40;99.90;;;;;;4909229;29;20055;-74
2022/07/08 05:10:23;;;;;;;4.68;1.90;;;14.60;99.90;;;;;;4917063;29;20092;-75
2022/07/08 05:12:49;;;;;;;5.93;3.58;;;14.70;99.90;;;;;;4909298;29;20578;-74
2022/07/08 05:15:15;;;;;;;4.15;2.55;;;14.80;99.90;;;;;;4912985;29;20150;-74
2022/07/08 05:17:41;;;;;;;5.45;2.60;;;14.90;99.90;;;;;;4906166;29;20047;-75
2022/07/08 05:20:08;;;;;;;7.47;2.75;;;15.00;99.90;;;;;;4927969;28;20795;-74
2022/07/08 05:22:34;;;;;;;6.60;2.30;;;15.20;99.90;;;;;;4905565;29;20504;-74
2022/07/08 05:25:00;;;;;;;5.80;3.25;;;15.20;99.90;;;;;;4913074;29;20048;-74
2022/07/08 05:27:26;;;;;;;5.60;2.45;;;15.30;99.90;;;;;;4934637;28;20085;-75
2022/07/08 05:29:51;;;;;;;5.20;2.90;;;15.40;99.90;;;;;;4916063;29;21020;-74
2022/07/08 05:32:17;;;;;;;6.40;1.85;;;15.50;99.90;;;;;;4919590;28;20416;-75
2022/07/08 05:34:44;;;;;;;6.22;2.53;;;15.40;99.90;;;;;;4914834;29;20091;-74
2022/07/08 05:37:11;;;;;;;3.10;2.10;;;15.40;99.90;;;;;;4914542;29;20531;-74
2022/07/08 05:39:38;;;;;;;5.10;2.40;;;15.40;99.90;;;;;;4906228;29;20091;-74
2022/07/08 05:42:04;;;;;;;7.25;2.17;;;15.40;99.90;;;;;;4916595;29;20140;-75
2022/07/08 05:44:30;;;;;;;7.20;2.28;;;15.50;99.90;;;;;;4916724;29;20204;-74
2022/07/08 05:46:55;;;;;;;3.45;2.22;;;15.50;99.90;;;;;;4920121;29;20055;-74
2022/07/08 05:49:21;;;;;;;2.80;2.50;;;15.60;99.90;;;;;;4921043;29;20099;-75
2022/07/08 05:51:47;;;;;;;6.80;2.40;;;15.70;99.90;;;;;;4907473;29;20052;-74
2022/07/08 05:54:12;;;;;;;9.65;2.20;;;15.90;99.90;;;;;;4919572;29;20051;-74
2022/07/08 05:56:38;;;;;;;8.93;2.40;;;16.00;99.90;;;;;;4914641;29;20056;-75
2022/07/08 05:59:04;;;;;;;10.30;2.17;;;16.10;99.90;;;;;;4924340;29;20511;-74
2022/07/08 06:01:29;;;;;;;6.95;2.60;;;16.20;99.90;;;;;;4933138;28;20059;-74
2022/07/08 06:03:55;;;;;;;6.38;2.10;;;16.40;99.90;;;;;;4917653;28;20048;-74
2022/07/08 06:06:21;;;;;;;7.10;3.30;;;16.50;99.90;;;;;;4916718;29;20116;-73
2022/07/08 06:08:46;;;;;;;3.65;1.90;;;16.50;99.90;;;;;;4920509;29;20081;-75
2022/07/08 06:11:12;;;;;;;7.40;2.28;;;16.70;99.90;;;;;;4923612;28;20051;-74
2022/07/08 06:13:38;;;;;;;8.80;2.72;;;16.70;99.90;;;;;;4913839;29;20091;-74
2022/07/08 06:16:04;;;;;;;4.50;2.28;;;16.80;99.90;;;;;;4924382;28;20139;-75
2022/07/08 06:18:29;;;;;;;4.45;2.30;;;16.90;99.90;;;;;;4910806;29;20136;-74
2022/07/08 06:20:55;;;;;;;7.53;2.38;;;17.00;99.90;;;;;;4912876;29;20048;-74
2022/07/08 06:23:20;;;;;;;10.25;2.20;;;17.00;99.90;;;;;;4911711;29;20111;-74
2022/07/08 06:25:46;;;;;;;6.57;2.47;;;17.20;99.90;;;;;;4918813;29;20058;-74
2022/07/08 06:28:12;;;;;;;6.60;1.90;;;17.30;99.90;;;;;;4913451;29;20055;-74
2022/07/08 06:30:38;;;;;;;13.52;3.08;;;17.40;99.90;;;;;;4916932;29;20047;-74
2022/07/08 06:33:05;;;;;;;6.93;2.10;;;17.60;99.90;;;;;;4907081;29;20056;-74
2022/07/08 06:35:32;;;;;;;6.15;2.28;;;17.70;99.90;;;;;;4937990;28;20062;-74
2022/07/08 06:37:57;;;;;;;3.60;1.90;;;17.80;99.90;;;;;;4921354;29;20316;-74
2022/07/08 06:40:23;;;;;;;7.30;2.25;;;17.80;99.90;;;;;;4925102;29;20885;-74
2022/07/08 06:42:49;;;;;;;4.63;1.75;;;17.80;99.90;;;;;;4914297;28;20130;-74
2022/07/08 06:45:15;;;;;;;5.18;2.60;;;17.80;99.90;;;;;;4917384;29;20071;-74
2022/07/08 06:47:42;;;;;;;3.47;2.20;;;17.70;99.90;;;;;;4921559;29;20052;-74
2022/07/08 06:50:08;;;;;;;7.07;2.35;;;17.70;99.90;;;;;;4920429;29;20056;-73
2022/07/08 06:52:35;;;;;;;3.40;1.98;;;17.70;99.90;;;;;;4917844;29;20770;-74
2022/07/08 06:55:01;;;;;;;11.68;3.45;;;17.70;99.90;;;;;;4918432;29;20054;-75
2022/07/08 06:57:27;;;;;;;4.45;2.00;;;17.80;99.90;;;;;;4919486;29;20051;-74
2022/07/08 06:59:52;;;;;;;6.00;2.55;;;17.90;99.90;;;;;;4918514;29;20056;-74
2022/07/08 07:02:18;;;;;;;5.03;2.55;;;18.00;99.90;;;;;;4911954;28;20103;-74
2022/07/08 07:04:44;;;;;;;7.80;2.00;;;18.10;99.90;;;;;;4923294;29;20052;-74
2022/07/08 07:07:10;;;;;;;8.00;2.70;;;18.20;99.90;;;;;;4931181;29;20117;-74
2022/07/08 07:09:36;;;;;;;5.07;3.58;;;18.30;99.90;;;;;;4934192;29;20508;-74
2022/07/08 07:12:03;;;;;;;8.15;2.47;;;18.40;99.90;;;;;;4920613;28;20051;-74
2022/07/08 07:14:28;;;;;;;15.10;2.67;;;18.50;99.90;;;;;;4911116;29;20056;-73
2022/07/08 07:16:54;;;;;;;8.63;2.35;;;18.40;99.90;;;;;;4920295;29;20051;-74
2022/07/08 07:19:20;;;;;;;6.03;2.67;;;18.40;99.90;;;;;;4911623;29;20171;-75
2022/07/08 07:21:46;;;;;;;3.25;2.17;;;18.40;99.90;;;;;;4920301;29;20145;-74
2022/07/08 07:24:11;;;;;;;6.30;2.45;;;18.50;99.90;;;;;;4922579;29;20055;-74
2022/07/08 07:26:37;;;;;;;3.75;1.75;;;18.50;99.90;;;;;;4922595;29;20086;-74
2022/07/08 07:29:03;;;;;;;3.38;1.85;;;18.70;99.90;;;;;;4929233;29;20055;-74
2022/07/08 07:31:29;;;;;;;6.55;2.20;;;18.90;99.90;;;;;;4924387;29;20435;-74
2022/07/08 07:33:55;;;;;;;7.38;2.40;;;19.00;99.90;;;;;;4920781;28;20060;-74
2022/07/08 07:36:21;;;;;;;6.90;2.47;;;19.00;99.90;;;;;;4906604;29;20055;-74
2022/07/08 07:38:47;;;;;;;5.68;1.98;;;19.00;99.90;;;;;;4920208;29;20051;-74
2022/07/08 07:41:12;;;;;;;5.80;1.90;;;19.00;99.90;;;;;;4923172;29;20943;-74
2022/07/08 07:43:38;;;;;;;7.40;2.17;;;18.90;99.90;;;;;;4930491;28;20051;-74
2022/07/08 07:46:04;;;;;;;7.07;2.63;;;19.00;99.90;;;;;;4921396;28;20043;-74
2022/07/08 07:48:30;;;;;;;3.90;2.38;;;19.00;99.90;;;;;;4910416;29;20048;-73
2022/07/08 07:50:55;;;;;;;5.35;2.38;;;19.10;99.90;;;;;;4913046;29;20071;-74
2022/07/08 07:53:21;;;;;;;4.65;1.95;;;19.00;99.90;;;;;;4915531;29;20051;-73
2022/07/08 07:55:47;;;;;;;15.75;2.88;;;19.10;99.90;;;;;;4920808;29;20092;-73
2022/07/08 07:58:12;;;;;;;3.42;1.98;;;19.10;99.90;;;;;;4917135;29;20044;-73
2022/07/08 08:00:38;;;;;;;4.72;2.00;;;19.20;99.90;;;;;;4916732;29;20150;-74
2022/07/08 08:03:04;;;;;;;4.90;2.17;;;19.30;99.90;;;;;;4935492;28;20427;-74
2022/07/08 08:05:29;;;;;;;5.22;2.17;;;19.20;99.90;;;;;;4924622;28;20095;-73
2022/07/08 08:07:55;;;;;;;5.47;2.47;;;19.30;99.90;;;;;;4919756;29;20075;-74
2022/07/08 08:10:21;;;;;;;4.25;2.53;;;19.20;99.90;;;;;;4921538;29;20106;-73
2022/07/08 08:12:46;;;;;;;6.65;2.08;;;19.30;99.90;;;;;;4919826;29;20047;-74
2022/07/08 08:15:12;;;;;;;4.63;2.28;;;19.20;99.90;;;;;;4921237;29;20043;-74
2022/07/08 08:17:39;;;;;;;4.82;1.80;;;19.30;99.90;;;;;;4922446;29;20046;-74
2022/07/08 08:20:06;;;;;;;5.03;1.63;;;19.30;99.90;;;;;;4923837;29;20760;-74
2022/07/08 08:22:32;;;;;;;4.72;2.53;;;19.40;99.90;;;;;;4921503;29;20712;-74
2022/07/08 08:24:58;;;;;;;4.25;1.98;;;19.40;99.90;;;;;;4914131;29;20036;-74
2022/07/08 08:27:24;;;;;;;4.18;1.88;;;19.50;99.90;;;;;;4921985;29;20061;-75
2022/07/08 08:29:50;;;;;;;11.15;2.50;;;19.40;99.90;;;;;;4924930;28;20123;-74
2022/07/08 08:32:15;;;;;;;8.80;2.42;;;19.50;99.90;;;;;;4921274;29;20406;-75
2022/07/08 08:34:41;;;;;;;4.60;1.65;;;19.60;99.90;;;;;;4923104;29;20059;-74
2022/07/08 08:37:07;;;;;;;6.20;2.20;;;19.80;99.90;;;;;;4929708;29;20077;-75
2022/07/08 08:39:33;;;;;;;4.63;1.90;;;19.90;99.90;;;;;;4934294;28;20059;-75
2022/07/08 08:41:59;;;;;;;5.32;1.90;;;19.90;99.90;;;;;;4920368;29;20051;-75
2022/07/08 08:44:26;;;;;;;5.07;2.10;;;19.80;99.90;;;;;;4919502;29;20052;-70
2022/07/08 08:46:53;;;;;;;7.68;2.15;;;19.80;99.90;;;;;;4923351;28;20496;-72
2022/07/08 08:49:20;;;;;;;3.65;1.95;;;19.80;99.90;;;;;;4916119;29;20043;-71
2022/07/08 08:51:49;;;;;;;7.35;2.08;;;19.80;99.90;;;;;;4907324;29;20064;-72
2022/07/08 08:54:20;;;;;;;5.82;2.30;;;19.80;99.90;;;;;;4915832;29;20188;-72
2022/07/08 08:56:46;;;;;;;7.10;1.63;;;19.70;99.90;;;;;;4926848;28;20047;-74
2022/07/08 08:59:17;;;;;;;5.65;2.00;;;19.70;99.90;;;;;;4915272;29;20055;-73
2022/07/08 09:01:44;;;;;;;5.57;2.20;;;19.70;99.90;;;;;;4929644;28;20058;-72
2022/07/08 09:04:12;;;;;;;3.90;1.50;;;19.80;99.90;;;;;;4906122;29;20206;-72
2022/07/08 09:06:39;;;;;;;3.30;1.90;;;19.90;99.90;;;;;;4903684;29;20293;-71
2022/07/08 09:09:05;;;;;;;3.83;1.70;;;20.00;99.90;;;;;;4909394;29;20079;-73
2022/07/08 09:11:33;;;;;;;5.05;2.08;;;20.10;99.90;;;;;;4922037;29;20805;-73
2022/07/08 09:14:20;;;;;;;4.65;1.80;;;20.10;99.90;;;;;;4922335;28;20055;-73
2022/07/08 09:17:17;;;;;;;5.65;1.95;;;20.10;99.90;;;;;;4922216;28;20107;-73
2022/07/08 09:19:44;;;;;;;4.10;1.90;;;20.10;99.90;;;;;;4917054;29;20052;-74
2022/07/08 09:22:10;;;;;;;3.78;2.05;;;20.10;99.90;;;;;;4905138;29;20052;-73
2022/07/08 09:24:36;;;;;;;9.40;2.38;;;20.10;99.90;;;;;;4904856;29;20384;-72
2022/07/08 09:27:10;;;;;;;2.78;1.65;;;20.20;99.90;;;;;;4914346;29;20547;-72
2022/07/08 09:29:39;;;;;;;3.95;1.98;;;20.30;99.90;;;;;;4909534;29;20127;-73
2022/07/08 09:32:23;;;;;;;6.90;2.22;;;20.40;99.90;;;;;;4921026;29;20055;-73
2022/07/08 09:34:49;;;;;;;4.78;2.10;;;20.50;99.90;;;;;;4912439;29;20059;-73
2022/07/08 09:37:18;;;;;;;6.38;2.10;;;20.50;99.90;;;;;;4920355;29;20044;-74
2022/07/08 09:39:44;;;;;;;2.40;1.75;;;20.40;99.90;;;;;;4914404;29;20107;-74
2022/07/08 09:42:11;;;;;;;3.63;2.05;;;20.40;99.90;;;;;;4907795;29;20071;-73
2022/07/08 09:44:37;;;;;;;4.28;2.00;;;20.40;99.90;;;;;;4906649;29;20155;-74
2022/07/08 09:47:14;;;;;;;7.30;2.22;;;20.40;99.90;;;;;;4914727;29;20043;-73
2022/07/08 09:49:45;;;;;;;3.65;1.83;;;20.50;99.90;;;;;;4913168;29;20052;-74
2022/07/08 09:52:18;;;;;;;6.40;2.65;;;20.50;99.90;;;;;;4925934;29;20051;-73
2022/07/08 09:54:44;;;;;;;7.18;2.10;;;20.50;99.90;;;;;;4916646;29;20055;-73
2022/07/08 09:57:11;;;;;;;6.57;2.20;;;20.70;99.90;;;;;;4910366;29;20102;-73
2022/07/08 09:59:37;;;;;;;3.95;2.53;;;20.80;99.90;;;;;;4914991;29;20110;-73
2022/07/08 10:02:04;;;;;;;4.28;2.35;;;20.90;99.90;;;;;;4913366;29;20054;-73
2022/07/08 10:04:31;;;;;;;3.88;1.80;;;20.80;99.90;;;;;;4909523;29;20083;-73
2022/07/08 10:06:58;;;;;;;4.57;2.30;;;20.80;99.90;;;;;;4915790;29;20768;-73
2022/07/08 10:09:25;;;;;;;5.00;1.90;;;20.80;99.90;;;;;;4926728;28;20104;-72
2022/07/08 10:11:51;;;;;;;6.32;2.53;;;20.90;99.90;;;;;;4912254;29;20522;-72
2022/07/08 10:14:19;;;;;;;3.78;1.77;;;20.90;99.90;;;;;;4917825;29;20066;-72
2022/07/08 10:16:46;;;;;;;3.75;2.17;;;20.90;99.90;;;;;;4928563;29;20827;-71
2022/07/08 10:19:24;;;;;;;3.85;2.00;;;20.90;99.90;;;;;;4924620;28;20051;-74
2022/07/08 10:21:54;;;;;;;5.82;3.08;;;20.90;99.90;;;;;;4914549;29;20237;-74
2022/07/08 10:24:27;;;;;;;3.28;1.80;;;20.90;99.90;;;;;;4903035;29;20283;-74
2022/07/08 10:26:58;;;;;;;2.35;1.80;;;21.10;99.90;;;;;;4912734;29;20052;-74
2022/07/08 10:29:31;;;;;;;5.35;2.40;;;21.30;99.90;;;;;;4920550;29;20059;-74
2022/07/08 10:31:57;;;;;;;;;;;21.50;99.90;;;;;;4917715;29;20051;-74
2022/07/08 10:34:32;;;;;;;4.40;2.40;;;21.70;99.90;;;;;;4918360;29;19990;-74
2022/07/08 10:37:01;;;;;;;8.85;2.53;;;21.90;99.90;;;;;;4920061;29;20087;-74
2022/07/08 10:39:28;;;;;;;4.53;2.10;;;22.10;99.90;;;;;;4910865;29;20039;-74
2022/07/08 10:42:04;;;;;;;3.95;2.30;;;22.10;99.90;;;;;;4916588;29;20054;-74
2022/07/08 10:44:48;;;;;;;6.05;2.05;;;22.30;99.90;;;;;;4917327;29;20131;-74
2022/07/08 10:47:15;;;;;;;4.88;2.53;;;22.30;99.90;;;;;;4906772;29;20127;-73
2022/07/08 10:49:43;;;;;;;4.13;1.75;;;22.30;99.90;;;;;;4906874;29;20044;-74
2022/07/08 10:52:09;;;;;;;3.70;2.17;;;22.20;99.90;;;;;;4911610;29;20130;-74
2022/07/08 10:54:37;;;;;;;4.15;1.88;;;22.10;99.90;;;;;;4927421;29;20063;-75
2022/07/08 10:57:16;;;;;;;3.40;2.40;;;22.20;99.90;;;;;;4915717;29;20044;-74
2022/07/08 11:00:01;;;;;;;6.05;2.22;;;22.50;99.90;;;;;;4910469;28;20190;-74
2022/07/08 11:02:27;;;;;;;5.15;2.30;;;22.70;99.90;;;;;;4916947;29;20044;-72
2022/07/08 11:04:53;;;;;;;5.05;2.00;;;23.00;99.90;;;;;;4920607;29;20106;-73
2022/07/08 11:07:29;;;;;;;5.18;2.92;;;23.10;99.90;;;;;;4916506;29;20769;-73
2022/07/08 11:09:54;;;;;;;2.97;2.67;;;23.10;99.90;;;;;;4904448;29;20091;-74
2022/07/08 11:12:29;;;;;;;8.02;2.47;;;23.10;99.90;;;;;;4907826;29;20198;-74
2022/07/08 11:14:57;;;;;;;6.95;3.25;;;23.10;99.90;;;;;;4918902;29;20097;-75
2022/07/08 11:17:35;;;;;;;5.40;2.08;;;23.10;99.90;;;;;;4919163;29;20058;-74
2022/07/08 11:20:05;;;;;;;5.50;2.60;;;23.10;99.90;;;;;;4915496;29;20856;-74
2022/07/08 11:22:35;;;;;;;3.05;1.90;;;23.00;99.90;;;;;;4922646;29;20830;-74
2022/07/08 11:25:01;;;;;;;2.65;2.25;;;22.90;99.90;;;;;;4914055;29;20058;-74
2022/07/08 11:27:28;;;;;;;8.32;2.78;;;22.90;99.90;;;;;;4914883;29;20378;-72
2022/07/08 11:29:55;;;;;;;5.90;2.38;;;22.90;99.90;;;;;;4915692;29;20695;-72
2022/07/08 11:32:22;;;;;;;4.95;2.25;;;23.10;99.90;;;;;;4906357;29;20052;-74
2022/07/08 11:34:49;;;;;;;5.35;2.70;;;23.30;99.90;;;;;;4913293;29;20219;-74
2022/07/08 11:37:16;;;;;;;4.40;2.13;;;23.60;99.80;;;;;;4915690;29;20102;-74
2022/07/08 11:39:42;;;;;;;6.55;2.63;;;23.60;99.30;;;;;;4918508;29;20163;-74
2022/07/08 11:42:09;;;;;;;5.60;2.00;;;23.80;99.40;;;;;;4913009;29;20066;-73
2022/07/08 11:44:35;;;;;;;4.80;1.90;;;23.90;99.40;;;;;;4902928;29;20056;-75
2022/07/08 11:47:01;;;;;;;6.35;2.30;;;24.10;99.50;;;;;;4912909;29;20544;-74
2022/07/08 11:49:27;;;;;;;6.22;2.45;;;24.20;99.10;;;;;;4914078;29;20048;-74
2022/07/08 11:51:57;;;;;;;1.67;1.52;;;24.30;98.80;;;;;;4913243;29;20381;-74
2022/07/08 11:54:28;;;;;;;3.10;2.25;;;24.30;98.50;;;;;;4904205;29;20083;-75
2022/07/08 11:56:58;;;;;;;1.92;1.63;;;24.30;98.30;;;;;;4922643;29;20853;-74
2022/07/08 11:59:26;;;;;;;6.03;1.92;;;24.40;97.80;;;;;;4911043;29;20796;-75
2022/07/08 12:01:52;;;;;;;4.68;1.88;;;24.70;98.60;;;;;;4914098;29;20773;-75
2022/07/08 12:04:18;;;;;;;6.00;2.38;;;25.10;98.30;;;;;;4907777;29;20054;-74
2022/07/08 12:06:52;;;;;;;5.55;2.38;;;25.10;97.50;;;;;;4925262;29;20043;-74
2022/07/08 12:09:20;;;;;;;5.32;1.95;;;25.20;97.30;;;;;;4909397;28;20114;-75
2022/07/08 12:11:50;;;;;;;3.05;1.58;;;24.90;96.90;;;;;;4914488;29;20114;-74
2022/07/08 12:14:17;;;;;;;7.22;2.10;;;24.70;96.80;;;;;;4907032;29;20166;-74
2022/07/08 12:16:44;;;;;;;5.10;2.35;;;24.50;96.90;;;;;;4901761;29;20055;-74
2022/07/08 12:19:36;;;;;;;2.65;2.17;;;24.50;97.20;;;;;;4904715;29;20070;-74
2022/07/08 12:22:06;;;;;;;7.40;2.40;;;24.30;96.70;;;;;;4917954;29;20090;-74
2022/07/08 12:24:37;;;;;;;3.75;2.30;;;24.40;97.50;;;;;;4916484;29;20062;-74
2022/07/08 12:27:08;;;;;;;7.75;2.40;;;24.40;97.40;;;;;;4917590;29;20062;-74
2022/07/08 12:29:38;;;;;;;6.50;2.20;;;24.50;97.50;;;;;;4917343;29;20054;-73
2022/07/08 12:32:07;;;;;;;2.55;2.00;;;24.70;97.70;;;;;;4911702;29;20150;-73
2022/07/08 12:34:34;;;;;;;4.40;2.45;;;24.60;97.70;;;;;;4912424;29;20060;-73
2022/07/08 12:37:19;;;;;;;7.38;2.58;;;24.70;97.60;;;;;;4918115;29;20122;-73
2022/07/08 12:39:46;;;;;;;5.15;2.47;;;24.90;97.80;;;;;;4911387;29;20048;-73
2022/07/08 12:42:12;;;;;;;5.10;2.38;;;25.00;97.40;;;;;;4917737;29;20055;-73
2022/07/08 12:44:42;;;;;;;5.40;2.25;;;25.20;97.00;;;;;;4911348;29;20055;-74
2022/07/08 12:47:11;;;;;;;4.07;2.42;;;25.30;96.60;;;;;;4903766;29;20580;-74